Time;durP1;ratioP1;P1;durP2;ratioP2;P2;SDS_P1;SDS_P2;PMS_P1;PMS_P2;Temp;Humidity;BMP_temperature;BMP_pressure;BME280_temperature;BME280_humidity;BME280_pressure;Samples;Min_cycle;Max_cycle;Signal;HPM_P1;HPM_P2
2023/05/07 00:01:13;;;;;;;18.10;16.03;;;15.80;1.00;;;;;;5099405;28;20197;-82
2023/05/07 00:03:38;;;;;;;26.53;16.27;;;15.80;1.00;;;;;;5087664;28;20229;-83
2023/05/07 00:06:04;;;;;;;21.23;16.90;;;15.80;1.00;;;;;;5095062;28;20175;-83
2023/05/07 00:08:30;;;;;;;20.00;15.40;;;15.90;1.00;;;;;;5073489;28;20434;-82
2023/05/07 00:10:55;;;;;;;18.50;15.97;;;15.90;1.00;;;;;;5095397;28;20199;-82
2023/05/07 00:13:21;;;;;;;25.97;15.90;;;15.90;1.00;;;;;;5091670;28;20219;-82
2023/05/07 00:15:46;;;;;;;22.60;15.50;;;15.90;1.00;;;;;;5095334;28;20210;-82
2023/05/07 00:18:12;;;;;;;21.07;16.20;;;15.90;1.00;;;;;;5086961;28;20180;-83
2023/05/07 00:20:37;;;;;;;28.63;16.60;;;15.90;1.00;;;;;;5070261;28;20211;-82
2023/05/07 00:23:03;;;;;;;23.57;15.60;;;15.90;1.00;;;;;;5078820;28;20257;-82
2023/05/07 00:25:28;;;;;;;26.70;16.30;;;15.90;1.00;;;;;;5082763;28;20192;-82
2023/05/07 00:27:54;;;;;;;23.67;15.20;;;15.90;1.00;;;;;;5078969;28;20211;-82
2023/05/07 00:30:20;;;;;;;26.20;15.83;;;15.90;1.00;;;;;;5079461;28;20311;-82
2023/05/07 00:32:45;;;;;;;21.43;16.00;;;15.90;1.00;;;;;;5075147;28;20248;-82
2023/05/07 00:35:12;;;;;;;27.43;16.07;;;15.90;1.00;;;;;;5078663;28;20215;-83
2023/05/07 00:37:37;;;;;;;25.03;16.43;;;15.90;1.00;;;;;;5075572;28;20183;-82
2023/05/07 00:40:06;;;;;;;20.30;15.77;;;15.80;1.00;;;;;;5076067;28;20514;-82
2023/05/07 00:42:32;;;;;;;26.50;16.37;;;15.80;1.00;;;;;;5078246;28;20216;-82
2023/05/07 00:44:58;;;;;;;27.20;14.43;;;15.80;1.00;;;;;;5072131;28;20913;-82
2023/05/07 00:47:25;;;;;;;26.20;16.83;;;15.80;1.00;;;;;;5077079;28;20266;-82
2023/05/07 00:49:51;;;;;;;24.73;16.27;;;15.80;1.00;;;;;;5078683;28;20661;-82
2023/05/07 00:52:19;;;;;;;30.03;15.47;;;15.70;1.00;;;;;;5079052;28;20459;-82
2023/05/07 00:54:45;;;;;;;23.10;16.33;;;15.70;1.00;;;;;;5077283;28;20470;-82
2023/05/07 00:57:11;;;;;;;24.33;15.60;;;15.70;1.00;;;;;;5077382;28;20426;-83
2023/05/07 00:59:37;;;;;;;18.30;13.90;;;15.70;1.00;;;;;;5078620;28;20232;-82
2023/05/07 01:02:03;;;;;;;18.40;14.37;;;15.70;1.00;;;;;;5085801;28;20438;-82
2023/05/07 01:04:29;;;;;;;20.43;13.80;;;15.70;1.00;;;;;;5076786;28;20459;-82
2023/05/07 01:06:57;;;;;;;19.83;14.13;;;15.70;1.00;;;;;;5076305;28;20446;-82
2023/05/07 01:09:24;;;;;;;26.40;14.30;;;15.60;1.00;;;;;;5078086;28;20191;-82
2023/05/07 01:11:51;;;;;;;18.50;13.30;;;15.60;1.00;;;;;;5076283;28;20603;-82
2023/05/07 01:14:17;;;;;;;17.53;14.43;;;15.60;1.00;;;;;;5070725;28;20445;-83
2023/05/07 01:16:43;;;;;;;20.83;14.77;;;15.60;1.00;;;;;;5078160;28;20407;-82
2023/05/07 01:19:11;;;;;;;20.00;14.80;;;15.60;1.00;;;;;;5081476;28;20418;-82
2023/05/07 01:21:38;;;;;;;21.07;12.77;;;15.60;1.00;;;;;;5082434;28;20689;-82
2023/05/07 01:24:04;;;;;;;17.93;13.40;;;15.50;1.00;;;;;;5075647;28;20442;-83
2023/05/07 01:26:30;;;;;;;18.43;14.97;;;15.50;1.00;;;;;;5077534;28;20454;-81
2023/05/07 01:28:55;;;;;;;17.03;14.17;;;15.50;1.00;;;;;;5073892;28;20435;-82
2023/05/07 01:31:22;;;;;;;16.37;14.30;;;15.50;1.00;;;;;;5083570;28;20585;-82
2023/05/07 01:33:49;;;;;;;17.17;13.63;;;15.50;1.00;;;;;;5096015;28;20194;-82
2023/05/07 01:36:17;;;;;;;16.10;13.93;;;15.50;1.00;;;;;;5092668;28;20541;-82
2023/05/07 01:38:43;;;;;;;17.33;14.60;;;15.50;1.00;;;;;;5097822;28;20428;-82
2023/05/07 01:41:09;;;;;;;23.03;14.70;;;15.50;1.00;;;;;;5098677;28;20446;-82
2023/05/07 01:43:34;;;;;;;16.20;13.93;;;15.40;1.00;;;;;;5098643;28;20433;-83
2023/05/07 01:46:02;;;;;;;22.63;15.07;;;15.40;1.00;;;;;;5096715;28;20187;-82
2023/05/07 01:48:28;;;;;;;19.10;15.00;;;15.40;1.00;;;;;;5076695;28;20198;-82
2023/05/07 01:50:55;;;;;;;17.50;15.10;;;15.40;1.00;;;;;;5099959;28;20517;-82
2023/05/07 01:53:20;;;;;;;21.63;16.00;;;15.40;1.00;;;;;;5094076;28;20464;-82
2023/05/07 01:55:46;;;;;;;17.23;15.20;;;15.40;1.00;;;;;;5085077;28;20531;-82
2023/05/07 01:58:11;;;;;;;24.20;14.53;;;15.30;1.00;;;;;;5097762;28;20179;-82
2023/05/07 02:00:37;;;;;;;17.47;15.40;;;15.30;1.00;;;;;;5096052;28;20267;-82
2023/05/07 02:03:03;;;;;;;18.03;16.13;;;15.30;1.00;;;;;;5077230;28;20217;-82
2023/05/07 02:05:28;;;;;;;24.00;18.03;;;15.30;1.00;;;;;;5091981;28;20193;-82
2023/05/07 02:07:54;;;;;;;20.53;16.53;;;15.20;1.00;;;;;;5085321;28;20182;-82
2023/05/07 02:10:19;;;;;;;23.17;16.90;;;15.20;1.00;;;;;;5098149;28;20189;-82
2023/05/07 02:12:45;;;;;;;23.00;16.17;;;15.10;1.00;;;;;;5095877;28;20205;-82
2023/05/07 02:15:10;;;;;;;24.70;17.17;;;15.10;1.00;;;;;;5095793;28;20243;-82
2023/05/07 02:17:57;;;;;;;29.33;19.40;;;15.10;1.00;;;;;;5092621;28;20194;-82
2023/05/07 02:20:23;;;;;;;26.53;17.00;;;15.00;1.00;;;;;;5084575;28;20194;-82
2023/05/07 02:22:48;;;;;;;23.83;17.07;;;15.00;1.00;;;;;;5089955;28;20470;-82
2023/05/07 02:25:14;;;;;;;25.60;17.43;;;15.00;1.00;;;;;;5084056;28;20186;-82
2023/05/07 02:27:39;;;;;;;26.80;15.83;;;15.00;1.00;;;;;;5090079;28;20199;-81
2023/05/07 02:30:05;;;;;;;23.60;16.50;;;14.90;1.00;;;;;;5090747;28;20247;-83
2023/05/07 02:32:31;;;;;;;30.27;19.33;;;14.90;1.00;;;;;;5097352;28;20211;-82
2023/05/07 02:34:56;;;;;;;24.40;17.20;;;14.90;1.00;;;;;;5097389;28;20945;-82
2023/05/07 02:37:22;;;;;;;23.33;17.40;;;14.90;1.00;;;;;;5091721;28;20238;-82
2023/05/07 02:39:47;;;;;;;27.93;17.60;;;14.90;1.00;;;;;;5068951;28;20191;-83
2023/05/07 02:42:13;;;;;;;25.73;16.93;;;14.90;1.00;;;;;;5096514;28;20208;-82
2023/05/07 02:44:38;;;;;;;24.40;17.23;;;14.90;1.00;;;;;;5096395;28;20203;-82
2023/05/07 02:47:04;;;;;;;19.60;15.47;;;14.90;1.00;;;;;;5093122;28;20198;-82
2023/05/07 02:49:29;;;;;;;24.43;16.07;;;14.90;1.00;;;;;;5097889;28;20189;-82
2023/05/07 02:51:55;;;;;;;26.07;15.57;;;14.90;1.00;;;;;;5090073;28;20282;-82
2023/05/07 02:54:21;;;;;;;21.37;15.67;;;14.90;1.00;;;;;;5097473;28;20182;-82
2023/05/07 02:56:46;;;;;;;25.07;16.67;;;14.90;1.00;;;;;;5078507;28;20206;-82
2023/05/07 02:59:12;;;;;;;21.57;15.23;;;14.90;1.00;;;;;;5090161;28;20680;-82
2023/05/07 03:01:37;;;;;;;23.97;16.00;;;14.90;1.00;;;;;;5095724;28;20218;-82
2023/05/07 03:04:03;;;;;;;22.97;15.20;;;14.90;1.00;;;;;;5088515;28;20206;-82
2023/05/07 03:06:29;;;;;;;21.67;16.10;;;14.90;1.00;;;;;;5096120;28;20177;-82
2023/05/07 03:08:54;;;;;;;25.70;16.60;;;14.90;1.00;;;;;;5094004;28;20545;-82
2023/05/07 03:11:20;;;;;;;21.40;15.93;;;14.90;1.00;;;;;;5095105;28;20239;-82
2023/05/07 03:13:45;;;;;;;24.13;16.57;;;14.90;1.00;;;;;;5082808;28;20187;-83
2023/05/07 03:16:11;;;;;;;19.73;15.10;;;14.90;1.00;;;;;;5100542;28;20210;-82
2023/05/07 03:18:36;;;;;;;26.67;15.70;;;14.80;1.00;;;;;;5095867;28;20186;-82
2023/05/07 03:21:08;;;;;;;20.67;14.70;;;14.80;1.00;;;;;;5103094;28;20202;-82
2023/05/07 03:23:33;;;;;;;25.43;16.10;;;14.70;1.00;;;;;;5104803;28;20687;-82
2023/05/07 03:25:59;;;;;;;23.40;15.57;;;14.70;1.00;;;;;;5095047;28;20420;-81
2023/05/07 03:28:24;;;;;;;24.77;16.90;;;14.70;1.00;;;;;;5087966;28;20203;-84
2023/05/07 03:30:50;;;;;;;28.50;17.10;;;14.60;1.00;;;;;;5077171;28;20219;-83
2023/05/07 03:33:16;;;;;;;23.93;16.90;;;14.60;1.00;;;;;;5091202;28;20660;-83
2023/05/07 03:35:41;;;;;;;29.93;16.13;;;14.60;1.00;;;;;;5097444;28;20208;-84
2023/05/07 03:38:07;;;;;;;23.63;17.63;;;14.50;1.00;;;;;;5088403;28;20208;-83
2023/05/07 03:40:32;;;;;;;22.50;15.50;;;14.50;1.00;;;;;;5091774;28;20653;-83
2023/05/07 03:42:59;;;;;;;20.80;14.27;;;14.50;1.00;;;;;;5092211;28;20206;-82
2023/05/07 03:45:25;;;;;;;25.80;16.07;;;14.50;1.00;;;;;;5098323;28;20213;-84
2023/05/07 03:47:51;;;;;;;21.90;15.77;;;14.60;1.00;;;;;;5097111;28;20434;-84
2023/05/07 03:50:17;;;;;;;22.60;14.90;;;14.50;1.00;;;;;;5097537;28;20167;-84
2023/05/07 03:52:42;;;;;;;25.00;16.70;;;14.50;1.00;;;;;;5100814;28;20211;-84
2023/05/07 03:55:08;;;;;;;20.53;15.87;;;14.50;1.00;;;;;;5081639;28;20218;-85
2023/05/07 03:57:34;;;;;;;27.23;17.13;;;14.60;1.00;;;;;;5082137;28;20192;-84
2023/05/07 03:59:59;;;;;;;23.87;15.07;;;14.60;1.00;;;;;;5092617;28;20428;-84
2023/05/07 04:02:25;;;;;;;27.17;16.80;;;14.60;1.00;;;;;;5099629;28;20206;-84
2023/05/07 04:04:50;;;;;;;26.13;18.70;;;14.60;1.00;;;;;;5100348;28;20206;-83
2023/05/07 04:07:16;;;;;;;29.20;17.30;;;14.60;1.00;;;;;;5100797;28;20238;-83
2023/05/07 04:09:42;;;;;;;25.30;18.40;;;14.60;1.00;;;;;;5096865;28;20265;-83
2023/05/07 04:12:07;;;;;;;26.27;18.20;;;14.70;1.00;;;;;;5080701;28;20550;-83
2023/05/07 04:14:33;;;;;;;26.90;17.60;;;14.70;1.00;;;;;;5099469;28;20207;-83
2023/05/07 04:16:59;;;;;;;24.93;17.27;;;14.70;1.00;;;;;;5098851;28;20214;-83
2023/05/07 04:19:25;;;;;;;23.53;17.70;;;14.70;1.00;;;;;;5097009;28;20202;-83
2023/05/07 04:21:50;;;;;;;27.97;16.83;;;14.70;1.00;;;;;;5096302;28;20486;-83
2023/05/07 04:24:16;;;;;;;27.63;18.53;;;14.80;1.00;;;;;;5079466;28;20413;-83
2023/05/07 04:26:41;;;;;;;28.60;18.47;;;14.80;1.00;;;;;;5092540;28;20243;-83
2023/05/07 04:29:07;;;;;;;23.47;16.80;;;14.90;1.00;;;;;;5078889;28;20179;-83
2023/05/07 04:31:32;;;;;;;27.47;18.03;;;14.90;1.00;;;;;;5085028;28;20212;-83
2023/05/07 04:33:58;;;;;;;24.20;17.80;;;14.90;1.00;;;;;;5097176;28;20713;-83
2023/05/07 04:36:27;;;;;;;25.80;17.10;;;14.90;1.00;;;;;;5099546;28;20214;-83
2023/05/07 04:38:53;;;;;;;25.70;17.73;;;14.90;1.00;;;;;;5097793;28;20198;-83
2023/05/07 04:41:18;;;;;;;27.37;17.83;;;15.00;1.00;;;;;;5090145;28;20527;-83
2023/05/07 04:43:44;;;;;;;27.57;17.73;;;15.00;1.00;;;;;;5092375;28;20440;-83
2023/05/07 04:46:10;;;;;;;23.70;17.07;;;15.10;1.00;;;;;;5072678;28;20249;-83
2023/05/07 04:48:35;;;;;;;24.40;17.57;;;15.20;1.00;;;;;;5089532;28;20190;-83
2023/05/07 04:51:00;;;;;;;24.27;16.00;;;15.30;1.00;;;;;;5094908;28;20211;-83
2023/05/07 04:53:26;;;;;;;25.47;16.60;;;15.40;1.00;;;;;;5099059;28;20203;-83
2023/05/07 04:55:56;;;;;;;21.60;15.63;;;15.40;1.00;;;;;;5099187;28;20207;-83
2023/05/07 04:58:22;;;;;;;22.83;16.67;;;15.50;99.90;;;;;;5096584;28;20738;-82
2023/05/07 05:00:48;;;;;;;22.13;15.50;;;15.50;99.90;;;;;;5094643;28;20453;-83
2023/05/07 05:03:13;;;;;;;22.20;16.37;;;15.50;99.90;;;;;;5066975;28;20969;-83
2023/05/07 05:05:39;;;;;;;22.37;14.93;;;15.60;99.90;;;;;;5096756;28;20195;-83
2023/05/07 05:08:05;;;;;;;21.53;15.40;;;15.60;99.90;;;;;;5097898;28;20262;-83
2023/05/07 05:10:30;;;;;;;21.77;14.70;;;15.70;99.90;;;;;;5098645;28;20184;-83
2023/05/07 05:12:56;;;;;;;18.30;14.37;;;15.80;99.90;;;;;;5088018;28;20782;-83
2023/05/07 05:15:21;;;;;;;22.40;14.70;;;15.90;99.90;;;;;;5098029;28;20210;-83
2023/05/07 05:17:47;;;;;;;21.63;14.43;;;15.90;99.90;;;;;;5089067;28;20201;-81
2023/05/07 05:20:12;;;;;;;18.70;13.27;;;16.00;99.90;;;;;;5084609;28;20194;-83
2023/05/07 05:22:38;;;;;;;19.37;13.83;;;16.10;99.90;;;;;;5094449;28;20628;-83
2023/05/07 05:25:04;;;;;;;17.70;12.90;;;16.10;99.90;;;;;;5097569;28;20199;-83
2023/05/07 05:27:30;;;;;;;17.17;12.37;;;16.20;99.90;;;;;;5098310;28;20441;-83
2023/05/07 05:29:55;;;;;;;21.17;12.40;;;16.30;99.90;;;;;;5097410;28;20429;-81
2023/05/07 05:32:21;;;;;;;16.20;12.10;;;16.40;99.90;;;;;;5093776;28;20211;-83
2023/05/07 05:34:47;;;;;;;15.13;11.43;;;16.50;99.90;;;;;;5083513;28;20406;-84
2023/05/07 05:37:12;;;;;;;15.03;10.83;;;16.60;37.60;;;;;;5063818;28;20231;-83
2023/05/07 05:39:38;;;;;;;16.97;12.40;;;16.70;1.00;;;;;;5096407;28;20431;-83
2023/05/07 05:42:03;;;;;;;18.63;11.47;;;16.70;1.00;;;;;;5095810;28;20196;-84
2023/05/07 05:44:29;;;;;;;16.00;12.70;;;16.90;1.00;;;;;;5092368;28;20196;-84
2023/05/07 05:46:57;;;;;;;16.53;12.20;;;17.00;1.00;;;;;;5098354;28;20245;-83
2023/05/07 05:49:22;;;;;;;19.00;11.80;;;17.10;99.90;;;;;;5097910;28;20169;-84
2023/05/07 05:51:48;;;;;;;15.63;11.67;;;17.20;99.90;;;;;;5087237;28;20463;-83
2023/05/07 05:54:14;;;;;;;16.10;10.73;;;17.40;99.90;;;;;;5092883;28;20180;-83
2023/05/07 05:56:40;;;;;;;13.43;10.77;;;17.50;1.00;;;;;;5098827;28;20214;-84
2023/05/07 05:59:06;;;;;;;12.70;10.03;;;17.80;99.90;;;;;;5096917;28;20430;-83
2023/05/07 06:01:32;;;;;;;13.03;9.47;;;18.30;1.00;;;;;;5095173;28;20238;-84
2023/05/07 06:03:57;;;;;;;11.40;8.93;;;19.60;1.00;;;;;;5087181;28;20183;-85
2023/05/07 06:06:23;;;;;;;15.70;9.67;;;21.70;99.90;;;;;;5085358;28;20455;-85
2023/05/07 06:08:48;;;;;;;12.77;8.70;;;22.30;1.00;;;;;;5074651;28;20297;-84
2023/05/07 06:11:14;;;;;;;9.00;7.60;;;23.80;1.00;;;;;;5094691;28;20192;-86
2023/05/07 06:13:39;;;;;;;9.20;7.67;;;28.40;99.90;;;;;;5098354;28;20212;-86
2023/05/07 06:16:05;;;;;;;9.27;7.50;;;30.60;99.90;;;;;;5098359;28;20203;-85
2023/05/07 06:18:31;;;;;;;12.17;8.33;;;29.60;99.90;;;;;;5098580;28;20852;-86
2023/05/07 06:20:56;;;;;;;9.73;7.93;;;28.70;99.90;;;;;;5082811;28;20506;-85
2023/05/07 06:23:22;;;;;;;8.60;7.70;;;27.70;99.90;;;;;;5084276;28;20288;-85
2023/05/07 06:25:51;;;;;;;9.20;7.10;;;27.40;99.90;;;;;;5095720;28;20264;-85
2023/05/07 06:28:16;;;;;;;9.57;8.50;;;27.20;99.90;;;;;;5099676;28;20191;-85
2023/05/07 06:30:42;;;;;;;9.13;7.17;;;26.60;99.90;;;;;;5099043;28;20414;-86
2023/05/07 06:33:08;;;;;;;8.40;6.80;;;27.00;99.90;;;;;;5099968;28;20669;-85
2023/05/07 06:35:33;;;;;;;8.07;6.70;;;29.40;99.90;;;;;;5086399;28;20263;-86
2023/05/07 06:38:00;;;;;;;8.33;6.20;;;32.40;99.90;;;;;;5083893;28;20185;-86
2023/05/07 06:40:25;;;;;;;8.40;6.93;;;34.30;99.90;;;;;;5096327;28;20207;-84
2023/05/07 06:42:51;;;;;;;8.50;6.07;;;33.80;99.90;;;;;;5101125;28;20469;-84
2023/05/07 06:45:16;;;;;;;7.67;6.43;;;33.30;99.90;;;;;;5094581;28;20268;-84
2023/05/07 06:47:42;;;;;;;7.20;5.90;;;33.60;99.90;;;;;;5089045;28;20227;-83
2023/05/07 06:50:08;;;;;;;7.57;6.00;;;34.10;99.90;;;;;;5104979;28;20184;-84
2023/05/07 06:52:33;;;;;;;7.40;6.60;;;33.90;99.90;;;;;;5104929;28;20202;-84
2023/05/07 06:55:00;;;;;;;7.07;6.43;;;32.90;99.90;;;;;;5073190;28;20527;-84
2023/05/07 06:57:25;;;;;;;7.90;6.70;;;31.50;99.90;;;;;;5083620;28;20181;-86
2023/05/07 06:59:51;;;;;;;7.37;6.37;;;30.40;99.90;;;;;;5094542;28;20984;-88
2023/05/07 07:02:16;;;;;;;7.67;6.60;;;29.60;99.90;;;;;;5068253;28;20214;-84
2023/05/07 07:04:42;;;;;;;7.97;6.23;;;29.20;99.90;;;;;;5105240;28;20184;-84
2023/05/07 07:07:07;;;;;;;6.13;5.53;;;30.00;99.90;;;;;;5087407;28;20184;-86
2023/05/07 07:09:33;;;;;;;5.40;4.90;;;30.60;99.90;;;;;;5090934;28;20188;-85
2023/05/07 07:11:59;;;;;;;6.70;5.40;;;31.20;99.90;;;;;;5100869;28;20208;-86
2023/05/07 07:14:24;;;;;;;5.60;5.10;;;31.80;99.90;;;;;;5075573;28;20180;-86
2023/05/07 07:16:50;;;;;;;8.13;5.37;;;32.60;99.90;;;;;;5088474;28;20180;-85
2023/05/07 07:19:16;;;;;;;7.03;5.33;;;33.10;99.90;;;;;;5091904;28;20230;-85
2023/05/07 07:21:42;;;;;;;4.70;4.20;;;32.90;99.90;;;;;;5096977;28;20462;-86
2023/05/07 07:24:07;;;;;;;6.90;4.60;;;32.40;99.90;;;;;;5098322;28;20261;-85
2023/05/07 07:26:33;;;;;;;5.30;4.80;;;31.30;99.90;;;;;;5092462;28;20177;-84
2023/05/07 07:28:58;;;;;;;5.97;4.97;;;30.60;99.90;;;;;;5083438;28;20177;-85
2023/05/07 07:31:24;;;;;;;4.77;4.33;;;30.00;99.90;;;;;;5085938;28;20265;-85
2023/05/07 07:33:50;;;;;;;4.77;4.27;;;29.50;99.90;;;;;;5077032;28;21235;-85
2023/05/07 07:36:15;;;;;;;5.67;5.13;;;29.20;99.90;;;;;;5067733;28;20217;-85
2023/05/07 07:38:41;;;;;;;7.33;5.00;;;28.80;99.90;;;;;;5087420;28;20225;-85
2023/05/07 07:41:08;;;;;;;5.50;5.00;;;28.50;99.90;;;;;;5099810;28;20176;-84
2023/05/07 07:43:35;;;;;;;4.37;3.97;;;28.30;99.90;;;;;;5098615;28;20192;-84
2023/05/07 07:46:01;;;;;;;5.50;3.90;;;29.60;99.90;;;;;;5096466;28;20720;-85
2023/05/07 07:48:26;;;;;;;5.77;4.93;;;29.70;99.90;;;;;;5094744;28;20442;-85
2023/05/07 07:50:52;;;;;;;6.23;4.90;;;29.20;99.90;;;;;;5087166;28;20197;-85
2023/05/07 07:53:18;;;;;;;5.80;4.43;;;28.50;99.90;;;;;;5076075;28;20201;-85
2023/05/07 07:55:44;;;;;;;6.40;5.30;;;28.00;99.90;;;;;;5099395;28;20200;-85
2023/05/07 07:58:09;;;;;;;9.23;5.40;;;27.60;99.90;;;;;;5091145;28;20654;-85
2023/05/07 08:00:35;;;;;;;6.63;4.37;;;27.50;99.90;;;;;;5092485;28;20269;-85
2023/05/07 08:03:04;;;;;;;4.87;4.30;;;27.90;99.90;;;;;;5087737;28;20192;-85
2023/05/07 08:05:32;;;;;;;6.40;4.67;;;29.50;99.90;;;;;;5101178;28;20190;-85
2023/05/07 08:07:58;;;;;;;4.83;4.30;;;29.40;99.90;;;;;;5065273;28;20474;-85
2023/05/07 08:10:23;;;;;;;4.27;3.87;;;30.00;99.90;;;;;;5083362;28;20445;-85
2023/05/07 08:12:50;;;;;;;4.50;3.80;;;31.80;99.90;;;;;;5091534;28;20211;-86
2023/05/07 08:15:16;;;;;;;6.40;4.13;;;34.40;99.90;;;;;;5079828;28;20201;-85
2023/05/07 08:17:42;;;;;;;3.93;3.53;;;35.50;99.90;;;;;;5058819;28;20432;-85
2023/05/07 08:20:08;;;;;;;5.87;4.00;;;35.00;99.90;;;;;;5075581;28;20949;-85
2023/05/07 08:22:37;;;;;;;4.30;3.90;;;35.20;99.90;;;;;;5074380;28;20291;-86
2023/05/07 08:25:06;;;;;;;3.60;3.30;;;36.20;99.90;;;;;;5071655;28;20189;-86
2023/05/07 08:27:31;;;;;;;6.37;3.97;;;38.00;99.90;;;;;;5073564;28;20793;-86
2023/05/07 08:29:57;;;;;;;4.00;3.27;;;40.50;99.90;;;;;;5058592;28;20458;-85
2023/05/07 08:32:22;;;;;;;3.33;3.03;;;40.10;99.90;;;;;;5058312;28;20217;-84
2023/05/07 08:34:48;;;;;;;3.50;3.20;;;39.70;99.90;;;;;;5061189;28;20185;-83
2023/05/07 08:37:13;;;;;;;3.60;3.30;;;39.60;99.90;;;;;;5078074;28;20217;-85
2023/05/07 08:39:39;;;;;;;3.70;3.03;;;39.60;99.90;;;;;;5060016;28;20229;-84
2023/05/07 08:42:05;;;;;;;3.17;2.87;;;39.00;99.90;;;;;;5055469;28;20202;-84
2023/05/07 08:44:35;;;;;;;3.10;2.77;;;39.30;99.90;;;;;;5063636;28;20203;-84
2023/05/07 08:47:02;;;;;;;2.93;2.60;;;38.90;99.90;;;;;;5061624;28;20435;-84
2023/05/07 08:49:28;;;;;;;3.10;2.57;;;37.70;99.90;;;;;;5066902;28;20431;-85
2023/05/07 08:51:54;;;;;;;5.17;2.53;;;36.10;99.90;;;;;;5066989;28;20463;-84
2023/05/07 08:54:21;;;;;;;2.67;2.37;;;34.70;99.90;;;;;;5081942;28;20474;-84
2023/05/07 08:56:47;;;;;;;3.47;2.30;;;33.30;99.90;;;;;;5075688;28;20457;-85
2023/05/07 08:59:15;;;;;;;4.33;2.30;;;32.10;99.90;;;;;;5075796;28;20446;-84
2023/05/07 09:01:41;;;;;;;3.07;2.83;;;31.10;99.90;;;;;;5059713;28;20221;-85
2023/05/07 09:04:07;;;;;;;4.43;2.87;;;30.50;99.90;;;;;;5066038;28;20447;-83
2023/05/07 09:06:33;;;;;;;3.60;2.70;;;30.00;99.90;;;;;;5077082;28;20204;-84
2023/05/07 09:09:01;;;;;;;6.77;2.80;;;29.70;99.90;;;;;;5057091;28;20181;-85
2023/05/07 09:11:26;;;;;;;5.83;2.90;;;29.60;99.90;;;;;;5055676;28;20586;-85
2023/05/07 09:13:57;;;;;;;3.40;3.10;;;29.60;99.90;;;;;;5070446;28;20956;-85
2023/05/07 09:16:24;;;;;;;2.60;2.40;;;29.70;99.90;;;;;;5070687;28;20229;-85
2023/05/07 09:18:54;;;;;;;3.73;2.93;;;30.10;99.90;;;;;;5085062;28;20489;-85
2023/05/07 09:21:20;;;;;;;3.73;3.03;;;30.20;99.90;;;;;;5076593;28;20446;-85
2023/05/07 09:23:48;;;;;;;3.03;2.73;;;30.10;99.90;;;;;;5069347;28;20542;-85
2023/05/07 09:26:14;;;;;;;3.53;3.10;;;30.20;99.90;;;;;;5066341;28;20478;-86
2023/05/07 09:28:41;;;;;;;3.10;2.37;;;30.30;99.90;;;;;;5073991;28;20820;-85
2023/05/07 09:31:07;;;;;;;5.77;3.00;;;30.70;99.90;;;;;;5061566;28;20197;-84
2023/05/07 09:33:33;;;;;;;6.63;2.70;;;31.50;99.90;;;;;;5081477;28;20427;-86
2023/05/07 09:36:02;;;;;;;3.90;2.07;;;32.70;99.90;;;;;;5068736;28;20429;-86
2023/05/07 09:38:28;;;;;;;6.80;2.37;;;33.90;99.90;;;;;;5083372;28;20199;-85
2023/05/07 09:41:08;;;;;;;5.43;2.07;;;33.60;99.90;;;;;;5065353;28;20427;-84
2023/05/07 09:43:35;;;;;;;6.10;1.93;;;33.00;99.90;;;;;;5081609;28;20471;-83
2023/05/07 09:46:16;;;;;;;3.83;1.93;;;32.20;99.90;;;;;;5073025;28;20467;-84
2023/05/07 09:48:43;;;;;;;5.87;2.00;;;31.70;99.90;;;;;;5080739;28;20490;-83
2023/05/07 09:51:21;;;;;;;6.37;2.00;;;31.30;99.90;;;;;;5071915;28;20481;-83
2023/05/07 09:53:49;;;;;;;4.23;2.00;;;31.10;99.90;;;;;;5067790;28;20526;-85
2023/05/07 09:56:16;;;;;;;4.90;2.37;;;30.90;99.90;;;;;;5072553;28;20439;-84
2023/05/07 09:58:43;;;;;;;6.53;2.27;;;30.70;99.90;;;;;;5075677;28;20439;-84
2023/05/07 10:01:10;;;;;;;3.30;2.03;;;30.60;99.90;;;;;;5069933;28;20573;-83
2023/05/07 10:03:37;;;;;;;5.43;1.60;;;30.70;99.90;;;;;;5081349;28;20417;-84
2023/05/07 10:06:04;;;;;;;2.70;1.47;;;30.50;99.90;;;;;;5079112;28;20455;-85
2023/05/07 10:08:30;;;;;;;3.43;2.60;;;30.50;99.90;;;;;;5073002;28;20841;-84
2023/05/07 10:10:56;;;;;;;6.83;1.93;;;30.70;99.90;;;;;;5069848;28;20800;-84
2023/05/07 10:13:22;;;;;;;7.63;2.07;;;30.90;99.90;;;;;;5058381;28;20455;-85
2023/05/07 10:15:48;;;;;;;3.30;1.90;;;31.10;99.90;;;;;;5069167;28;20173;-84
2023/05/07 10:18:13;;;;;;;5.43;1.93;;;31.00;99.90;;;;;;5072598;28;20523;-83
2023/05/07 10:20:41;;;;;;;3.33;1.70;;;31.00;99.90;;;;;;5095626;28;20181;-84
2023/05/07 10:23:07;;;;;;;6.20;2.27;;;31.10;99.90;;;;;;5092889;28;20211;-84
2023/05/07 10:25:33;;;;;;;3.40;2.07;;;31.10;99.90;;;;;;5079247;28;20541;-85
2023/05/07 10:28:06;;;;;;;7.10;2.20;;;31.10;99.90;;;;;;5078699;28;20432;-84
2023/05/07 10:31:01;;;;;;;3.77;1.67;;;31.00;99.90;;;;;;5066978;28;20284;-84
2023/05/07 10:33:30;;;;;;;2.33;1.40;;;31.10;99.90;;;;;;5089339;28;20441;-84
2023/05/07 10:35:59;;;;;;;2.33;1.60;;;31.20;99.90;;;;;;5078749;28;21220;-85
2023/05/07 10:38:26;;;;;;;2.70;1.90;;;31.30;99.90;;;;;;5088821;28;20441;-84
2023/05/07 10:40:52;;;;;;;5.73;2.17;;;31.30;99.90;;;;;;5076246;28;20456;-84
2023/05/07 10:43:17;;;;;;;2.47;1.70;;;31.50;99.90;;;;;;5076792;28;20482;-84
2023/05/07 10:45:43;;;;;;;5.63;2.50;;;31.60;99.90;;;;;;5084455;28;20219;-84
2023/05/07 10:48:16;;;;;;;3.63;1.90;;;31.60;99.90;;;;;;5095900;28;20612;-83
2023/05/07 10:50:47;;;;;;;3.03;2.27;;;31.80;99.90;;;;;;5066515;28;20182;-84
2023/05/07 10:53:19;;;;;;;8.10;2.00;;;31.70;99.90;;;;;;5065338;28;20454;-84
2023/05/07 10:55:47;;;;;;;11.07;2.37;;;31.50;99.90;;;;;;5072304;28;20433;-85
2023/05/07 10:58:21;;;;;;;6.60;1.80;;;31.50;99.90;;;;;;5083736;28;20509;-85
2023/05/07 11:00:48;;;;;;;3.03;2.00;;;31.50;99.90;;;;;;5063072;28;20460;-85
2023/05/07 11:03:15;;;;;;;2.47;1.80;;;31.60;99.90;;;;;;5082461;28;20456;-84
2023/05/07 11:05:41;;;;;;;3.87;1.67;;;31.70;99.90;;;;;;5073582;28;20805;-85
2023/05/07 11:08:08;;;;;;;1.70;1.30;;;31.60;99.90;;;;;;5073414;28;20966;-85
2023/05/07 11:10:55;;;;;;;3.80;2.20;;;31.60;99.90;;;;;;5082590;28;20443;-86
2023/05/07 11:13:51;;;;;;;2.93;2.10;;;31.60;99.90;;;;;;5070920;28;20507;-85
2023/05/07 11:16:24;;;;;;;3.87;1.70;;;31.40;99.90;;;;;;5085373;28;20494;-84
2023/05/07 11:18:52;;;;;;;2.37;2.00;;;31.30;99.90;;;;;;5078530;28;20507;-85
2023/05/07 11:21:42;;;;;;;2.30;1.97;;;31.20;99.90;;;;;;5077972;28;20433;-85
2023/05/07 11:24:12;;;;;;;3.50;1.80;;;31.20;99.90;;;;;;5074216;28;20522;-84
2023/05/07 11:26:48;;;;;;;2.77;1.90;;;31.10;99.90;;;;;;5087153;28;20465;-85
2023/05/07 11:29:19;;;;;;;5.13;1.70;;;30.90;99.90;;;;;;5071757;28;20522;-86
2023/05/07 11:31:50;;;;;;;2.43;1.80;;;30.50;99.90;;;;;;5072164;28;20495;-86
2023/05/07 11:34:24;;;;;;;2.10;1.90;;;30.10;99.90;;;;;;5062648;28;21007;-85
2023/05/07 11:36:51;;;;;;;2.20;1.90;;;29.60;99.90;;;;;;5073133;28;20441;-85
2023/05/07 11:39:32;;;;;;;2.40;2.17;;;29.20;99.90;;;;;;5072016;28;20427;-84
2023/05/07 11:41:58;;;;;;;4.40;2.37;;;29.00;99.90;;;;;;5091825;28;20486;-85
2023/05/07 11:44:24;;;;;;;2.67;2.10;;;28.80;99.90;;;;;;5074452;28;20459;-85
2023/05/07 11:46:49;;;;;;;2.37;1.63;;;28.60;99.90;;;;;;5079698;28;20554;-85
2023/05/07 11:49:16;;;;;;;2.70;1.70;;;28.50;99.90;;;;;;5089694;28;20185;-85
2023/05/07 11:51:42;;;;;;;2.83;1.97;;;28.40;99.90;;;;;;5076055;28;20199;-85
2023/05/07 11:54:11;;;;;;;3.93;2.20;;;28.40;99.90;;;;;;5092969;28;20419;-85
2023/05/07 11:56:37;;;;;;;2.93;2.17;;;28.30;99.90;;;;;;5091240;28;20173;-86
2023/05/07 11:59:02;;;;;;;3.20;1.80;;;28.20;99.90;;;;;;5089087;28;20450;-85
2023/05/07 12:01:28;;;;;;;3.53;2.43;;;28.10;99.90;;;;;;5078754;28;20740;-84
2023/05/07 12:03:53;;;;;;;2.73;1.97;;;28.00;99.90;;;;;;5082730;28;20658;-84
2023/05/07 12:06:19;;;;;;;3.17;2.03;;;28.00;99.90;;;;;;5083235;28;20207;-84
2023/05/07 12:08:45;;;;;;;3.30;2.00;;;28.00;99.90;;;;;;5089757;28;20189;-85
2023/05/07 12:11:22;;;;;;;4.20;2.10;;;28.10;99.90;;;;;;5086062;28;20259;-84
2023/05/07 12:13:47;;;;;;;2.93;1.90;;;28.20;99.90;;;;;;5078723;28;20418;-85
2023/05/07 12:16:13;;;;;;;2.60;2.07;;;28.30;99.90;;;;;;5092355;28;20477;-84
2023/05/07 12:18:39;;;;;;;3.50;2.00;;;28.20;99.90;;;;;;5090563;28;20169;-85
2023/05/07 12:21:06;;;;;;;3.80;2.10;;;28.20;99.90;;;;;;5088598;28;20440;-84
2023/05/07 12:23:33;;;;;;;2.73;1.63;;;28.20;99.90;;;;;;5078042;28;20527;-85
2023/05/07 12:25:59;;;;;;;3.17;1.90;;;28.10;99.90;;;;;;5083451;28;21117;-85
2023/05/07 12:28:25;;;;;;;2.20;1.77;;;28.20;99.90;;;;;;5079183;28;20448;-85
2023/05/07 12:30:51;;;;;;;3.50;1.87;;;28.30;99.90;;;;;;5083950;28;20481;-85
2023/05/07 12:33:24;;;;;;;3.70;1.70;;;28.40;99.90;;;;;;5098500;28;20624;-85
2023/05/07 12:35:50;;;;;;;2.37;1.97;;;28.50;99.90;;;;;;5074014;28;20430;-85
2023/05/07 12:38:17;;;;;;;3.00;1.50;;;28.70;99.90;;;;;;5080869;28;20435;-85